createdAt,value
2023-01-26T00:01:22.444Z,6.00
2023-01-26T00:03:50.802Z,7.00
2023-01-26T00:06:20.038Z,6.13
2023-01-26T00:08:50.918Z,6.90
2023-01-26T00:11:24.445Z,6.20
2023-01-26T00:13:52.013Z,5.10
2023-01-26T00:16:19.897Z,5.70
2023-01-26T00:18:47.389Z,5.43
2023-01-26T00:21:17.551Z,5.57
2023-01-26T00:23:45.144Z,5.73
2023-01-26T00:26:16.548Z,5.87
2023-01-26T00:28:43.620Z,5.97
2023-01-26T00:31:13.685Z,6.53
2023-01-26T00:33:40.800Z,6.23
2023-01-26T00:36:10.537Z,6.30
2023-01-26T00:38:37.709Z,6.00
2023-01-26T00:41:04.928Z,6.80
2023-01-26T00:43:32.063Z,6.73
2023-01-26T00:45:59.039Z,6.77
2023-01-26T00:48:25.945Z,7.73
2023-01-26T00:50:53.586Z,7.07
2023-01-26T00:53:20.428Z,7.13
2023-01-26T00:55:47.345Z,5.63
2023-01-26T00:58:14.306Z,5.67
2023-01-26T01:00:41.235Z,5.40
2023-01-26T01:03:08.099Z,5.60
2023-01-26T01:05:35.383Z,5.53
2023-01-26T01:08:02.778Z,5.30
2023-01-26T01:10:29.810Z,5.33
2023-01-26T01:12:56.918Z,4.93
2023-01-26T01:15:24.797Z,5.00
2023-01-26T01:17:52.021Z,5.70
2023-01-26T01:20:19.105Z,5.43
2023-01-26T01:22:46.982Z,5.07
2023-01-26T01:25:14.003Z,5.90
2023-01-26T01:27:40.956Z,5.80
2023-01-26T01:30:08.832Z,6.37
2023-01-26T01:32:36.789Z,5.30
2023-01-26T01:35:04.281Z,6.80
2023-01-26T01:37:31.741Z,6.93
2023-01-26T01:39:58.638Z,8.00
2023-01-26T01:42:26.415Z,10.17
2023-01-26T01:45:35.341Z,6.07
2023-01-26T01:48:05.325Z,6.33
2023-01-26T01:50:39.509Z,6.97
2023-01-26T01:53:10.938Z,7.07
2023-01-26T01:55:37.933Z,8.47
2023-01-26T01:58:06.609Z,6.50
2023-01-26T02:00:33.560Z,6.80
2023-01-26T02:03:12.692Z,5.90
2023-01-26T02:05:52.222Z,5.53
2023-01-26T02:08:21.564Z,5.40
2023-01-26T02:10:52.420Z,5.73
2023-01-26T02:13:20.288Z,4.90
2023-01-26T02:15:47.438Z,5.13
2023-01-26T02:18:14.520Z,4.43
2023-01-26T02:20:45.200Z,4.20
2023-01-26T02:23:32.095Z,5.37
2023-01-26T02:26:03.950Z,5.23
2023-01-26T02:28:31.018Z,5.23
2023-01-26T02:30:58.227Z,6.30
2023-01-26T02:33:28.407Z,5.77
2023-01-26T02:36:00.704Z,6.10
2023-01-26T02:38:39.217Z,5.73
2023-01-26T02:41:09.226Z,10.07
2023-01-26T02:43:36.507Z,6.40
2023-01-26T02:46:04.621Z,6.67
2023-01-26T02:49:13.660Z,9.37
2023-01-26T02:51:40.633Z,6.53
2023-01-26T02:54:07.971Z,9.03
2023-01-26T02:56:39.936Z,6.97
2023-01-26T02:59:07.150Z,6.67
2023-01-26T03:01:35.366Z,6.17
2023-01-26T03:04:02.533Z,6.70
2023-01-26T03:06:29.369Z,6.77
2023-01-26T03:08:57.343Z,6.40
2023-01-26T03:11:24.313Z,5.07
2023-01-26T03:13:51.162Z,6.30
2023-01-26T03:16:18.650Z,6.37
2023-01-26T03:19:03.661Z,6.60
2023-01-26T03:21:49.951Z,5.87
2023-01-26T03:24:35.590Z,6.87
2023-01-26T03:27:27.911Z,6.67
2023-01-26T03:29:58.643Z,6.93
2023-01-26T03:32:26.395Z,6.70
2023-01-26T03:34:54.484Z,6.80
2023-01-26T03:37:22.738Z,5.70
2023-01-26T03:40:17.302Z,5.97
2023-01-26T03:43:03.304Z,5.30
2023-01-26T03:45:48.706Z,6.50
2023-01-26T03:48:34.299Z,6.50
2023-01-26T03:51:21.878Z,6.13
2023-01-26T03:54:07.453Z,5.93
2023-01-26T03:56:34.861Z,6.33
2023-01-26T03:59:10.035Z,5.63
2023-01-26T04:01:42.115Z,5.60
2023-01-26T04:04:29.825Z,5.83
2023-01-26T04:07:15.329Z,5.73
2023-01-26T04:09:46.632Z,5.83
2023-01-26T04:12:14.173Z,6.17
2023-01-26T04:15:26.606Z,5.57
2023-01-26T04:18:12.187Z,5.73
2023-01-26T04:20:57.756Z,5.23
2023-01-26T04:23:24.710Z,5.53
2023-01-26T04:25:52.087Z,5.77
2023-01-26T04:28:19.196Z,7.10
2023-01-26T04:30:47.892Z,5.80
2023-01-26T04:33:14.742Z,6.87
2023-01-26T04:35:41.780Z,7.73
2023-01-26T04:38:08.898Z,8.23
2023-01-26T04:40:36.051Z,6.90
2023-01-26T04:43:04.534Z,6.77
2023-01-26T04:45:31.887Z,7.73
2023-01-26T04:47:58.929Z,7.27
2023-01-26T04:50:26.596Z,6.53
2023-01-26T04:52:53.712Z,6.60
2023-01-26T04:55:20.709Z,6.23
2023-01-26T04:57:47.616Z,6.67
2023-01-26T05:00:14.718Z,5.77
2023-01-26T05:02:42.322Z,10.27
2023-01-26T05:05:10.270Z,6.53
2023-01-26T05:07:37.654Z,6.67
2023-01-26T05:10:05.459Z,7.90
2023-01-26T05:12:43.088Z,7.13
2023-01-26T05:15:36.565Z,6.73
2023-01-26T05:18:23.808Z,8.37
2023-01-26T05:20:57.761Z,7.37
2023-01-26T05:23:31.422Z,6.60
2023-01-26T05:26:11.369Z,7.00
2023-01-26T05:28:55.701Z,8.10
2023-01-26T05:31:25.067Z,7.53
2023-01-26T05:33:53.504Z,8.00
2023-01-26T05:36:23.364Z,7.43
2023-01-26T05:38:50.995Z,7.97
2023-01-26T05:41:21.972Z,7.80
2023-01-26T05:44:27.259Z,9.03
2023-01-26T05:47:00.027Z,8.07
2023-01-26T05:49:27.077Z,8.77
2023-01-26T05:51:58.019Z,8.10
2023-01-26T05:54:25.560Z,8.57
2023-01-26T05:56:57.471Z,8.10
2023-01-26T05:59:26.543Z,7.97
2023-01-26T06:01:53.783Z,8.23
2023-01-26T06:04:21.360Z,7.67
2023-01-26T06:06:54.034Z,8.43
2023-01-26T06:09:27.148Z,7.30
2023-01-26T06:12:18.120Z,7.43
2023-01-26T06:14:58.511Z,9.10
2023-01-26T06:17:39.121Z,9.53
2023-01-26T06:20:09.826Z,10.90
2023-01-26T06:22:37.131Z,12.97
2023-01-26T06:25:04.569Z,13.90
2023-01-26T06:27:31.629Z,12.60
2023-01-26T06:30:04.009Z,12.40
2023-01-26T06:32:31.703Z,13.43
2023-01-26T06:34:59.001Z,11.50
2023-01-26T06:37:26.073Z,15.43
2023-01-26T06:39:53.502Z,14.73
2023-01-26T06:42:20.509Z,15.73
2023-01-26T06:44:47.860Z,13.40
2023-01-26T06:47:15.066Z,13.77
2023-01-26T06:49:44.108Z,11.77
2023-01-26T06:52:28.401Z,11.70
2023-01-26T06:55:00.808Z,12.67
2023-01-26T06:57:48.120Z,12.43
2023-01-26T07:00:36.816Z,9.27
2023-01-26T07:03:26.966Z,10.03
2023-01-26T07:05:54.104Z,9.23
2023-01-26T07:08:21.092Z,8.70
2023-01-26T07:10:50.251Z,6.90
2023-01-26T07:13:17.700Z,7.67
2023-01-26T07:15:44.656Z,9.33
2023-01-26T07:18:11.718Z,9.17
2023-01-26T07:20:38.627Z,6.53
2023-01-26T07:23:05.629Z,9.27
2023-01-26T07:25:32.781Z,10.73
2023-01-26T07:28:00.710Z,10.13
2023-01-26T07:30:27.725Z,10.47
2023-01-26T07:32:54.645Z,11.97
2023-01-26T07:35:21.759Z,10.97
2023-01-26T07:37:49.442Z,10.10
2023-01-26T07:40:16.920Z,11.20
2023-01-26T07:42:44.676Z,10.73
2023-01-26T07:45:44.981Z,11.93
2023-01-26T07:48:13.286Z,12.33
2023-01-26T07:50:41.623Z,14.73
2023-01-26T07:53:09.690Z,14.57
2023-01-26T07:55:36.799Z,15.97
2023-01-26T07:58:03.858Z,14.00
2023-01-26T08:00:30.998Z,12.10
2023-01-26T08:02:58.148Z,12.43
2023-01-26T08:05:25.321Z,12.67
2023-01-26T08:07:52.553Z,11.77
2023-01-26T08:10:19.553Z,13.27
2023-01-26T08:12:46.624Z,15.60
2023-01-26T08:15:14.600Z,16.07
2023-01-26T08:17:41.796Z,14.80
2023-01-26T08:20:10.880Z,16.40
2023-01-26T08:22:38.783Z,17.07
2023-01-26T08:25:08.104Z,17.40
2023-01-26T08:27:35.303Z,16.20
2023-01-26T08:30:02.777Z,16.17
2023-01-26T08:32:30.671Z,14.03
2023-01-26T08:34:57.657Z,15.20
2023-01-26T08:37:24.821Z,15.03
2023-01-26T08:39:51.676Z,13.57
2023-01-26T08:42:18.587Z,13.83
2023-01-26T08:44:45.559Z,12.33
2023-01-26T08:47:12.552Z,12.63
2023-01-26T08:49:39.554Z,16.30
2023-01-26T08:52:06.747Z,16.33
2023-01-26T08:54:33.657Z,12.90
2023-01-26T08:57:00.567Z,10.77
2023-01-26T08:59:27.463Z,10.33
2023-01-26T09:01:55.888Z,9.63
2023-01-26T09:04:22.855Z,10.63
2023-01-26T09:06:49.923Z,9.73
2023-01-26T09:09:16.808Z,8.57
2023-01-26T09:11:43.854Z,7.90
2023-01-26T09:14:10.803Z,9.87
2023-01-26T09:16:37.796Z,7.93
2023-01-26T09:19:05.216Z,7.77
2023-01-26T09:21:32.184Z,7.23
2023-01-26T09:23:59.219Z,8.23
2023-01-26T09:26:26.370Z,8.77
2023-01-26T09:28:53.461Z,9.20
2023-01-26T09:31:20.849Z,10.07
2023-01-26T09:33:50.155Z,9.93
2023-01-26T09:36:17.205Z,9.60
2023-01-26T09:38:44.186Z,8.87
2023-01-26T09:41:11.251Z,10.57
2023-01-26T09:43:46.097Z,10.87
2023-01-26T09:46:26.148Z,11.13
2023-01-26T09:49:11.740Z,11.33
2023-01-26T09:51:47.583Z,18.23
2023-01-26T09:54:42.638Z,15.43
2023-01-26T09:57:21.291Z,14.13
2023-01-26T09:59:58.314Z,9.67
2023-01-26T10:02:45.482Z,10.13
2023-01-26T10:05:44.940Z,10.40
2023-01-26T10:08:14.814Z,9.87
2023-01-26T10:10:59.019Z,12.43
2023-01-26T10:13:27.304Z,10.77
2023-01-26T10:16:05.597Z,10.13
2023-01-26T10:18:37.722Z,13.53
2023-01-26T10:21:07.620Z,19.47
2023-01-26T10:23:35.632Z,12.93
2023-01-26T10:26:23.093Z,12.77
2023-01-26T10:28:52.325Z,20.00
2023-01-26T10:31:22.436Z,19.37
2023-01-26T10:34:20.608Z,13.60
2023-01-26T10:36:47.510Z,16.87
2023-01-26T10:39:17.090Z,15.90
2023-01-26T10:42:01.278Z,16.73
2023-01-26T10:44:39.583Z,13.43
2023-01-26T10:47:28.391Z,12.57
2023-01-26T10:50:23.950Z,12.70
2023-01-26T10:53:02.560Z,13.07
2023-01-26T10:55:31.239Z,12.33
2023-01-26T10:57:58.560Z,11.47
2023-01-26T11:00:33.535Z,12.50
2023-01-26T11:03:17.571Z,12.87
2023-01-26T11:05:48.199Z,12.57
2023-01-26T11:08:32.785Z,11.20
2023-01-26T11:10:59.780Z,9.60
2023-01-26T11:13:27.112Z,8.27
2023-01-26T14:46:51.281Z,17.10
2023-01-26T14:49:24.739Z,20.27
2023-01-26T14:51:57.224Z,25.40
2023-01-26T14:54:39.521Z,24.97
2023-01-26T14:57:09.547Z,22.83
2023-01-26T14:59:40.480Z,18.53
2023-01-26T15:02:10.119Z,19.07
2023-01-26T15:04:40.596Z,20.33
2023-01-26T15:07:37.057Z,16.70
2023-01-26T15:10:28.151Z,16.87
2023-01-26T15:13:07.272Z,17.10
2023-01-26T15:15:38.165Z,24.20
2023-01-26T15:18:14.490Z,23.27
2023-01-26T15:20:42.978Z,25.07
2023-01-26T15:23:29.687Z,25.33
2023-01-26T15:26:08.624Z,24.73
2023-01-26T15:28:36.142Z,24.17
2023-01-26T15:42:47.529Z,23.77
2023-01-26T15:45:25.781Z,23.27
2023-01-26T15:47:55.625Z,20.50
2023-01-26T15:50:28.160Z,19.33
2023-01-26T15:52:55.455Z,19.23
2023-01-26T15:55:27.558Z,16.20
2023-01-26T15:57:54.601Z,18.73
2023-01-26T16:00:22.529Z,18.63
2023-01-26T16:02:50.149Z,20.87
2023-01-26T16:05:20.824Z,20.17
2023-01-26T16:07:48.241Z,17.97
2023-01-26T16:10:18.081Z,19.53
2023-01-26T16:12:47.352Z,21.23
2023-01-26T16:15:39.261Z,21.07
2023-01-26T16:18:06.475Z,23.53
2023-01-26T16:20:35.956Z,20.03
2023-01-26T16:23:03.042Z,17.97
2023-01-26T16:25:32.214Z,17.50
2023-01-26T16:28:02.863Z,20.33
2023-01-26T16:30:29.839Z,19.87
2023-01-26T16:32:56.711Z,17.17
2023-01-26T16:35:24.501Z,17.73
2023-01-26T16:37:51.398Z,19.40
2023-01-26T16:40:19.302Z,17.70
2023-01-26T16:42:52.321Z,15.57
2023-01-26T16:45:24.591Z,17.00
2023-01-26T16:47:56.915Z,25.97
2023-01-26T16:50:25.480Z,23.70
2023-01-26T16:52:53.068Z,20.07
2023-01-26T16:55:20.207Z,19.80
2023-01-26T16:57:50.096Z,23.77
2023-01-26T17:00:19.965Z,23.73
2023-01-26T17:02:49.225Z,25.97
2023-01-26T17:05:18.773Z,27.20
2023-01-26T17:07:46.552Z,25.20
2023-01-26T17:10:15.917Z,30.60
2023-01-26T17:12:44.261Z,25.10
2023-01-26T17:15:13.062Z,20.47
2023-01-26T17:17:51.791Z,19.63
2023-01-26T17:20:19.978Z,18.23
2023-01-26T17:22:47.912Z,18.20
2023-01-26T17:25:17.220Z,17.10
2023-01-26T17:27:46.451Z,17.60
2023-01-26T17:30:15.051Z,17.87
2023-01-26T17:32:42.701Z,16.40
2023-01-26T17:35:09.952Z,17.23
2023-01-26T17:37:38.275Z,15.93
2023-01-26T17:40:06.923Z,7.97
2023-01-26T17:42:38.057Z,7.93
2023-01-26T17:45:08.399Z,7.13
2023-01-26T17:47:35.835Z,4.23
2023-01-26T17:50:05.559Z,3.90
2023-01-26T17:52:35.323Z,5.37
2023-01-26T17:55:05.281Z,6.03
2023-01-26T17:57:32.617Z,4.27
2023-01-26T17:59:59.833Z,3.20
2023-01-26T18:02:32.280Z,4.20
2023-01-26T18:05:02.598Z,4.00
2023-01-26T18:07:30.779Z,3.30
2023-01-26T18:09:57.798Z,3.00
2023-01-26T18:12:24.790Z,3.90
2023-01-26T18:14:54.217Z,4.33
2023-01-26T18:17:22.391Z,3.27
2023-01-26T18:19:49.281Z,3.67
2023-01-26T18:22:16.886Z,2.70
2023-01-26T18:24:43.882Z,2.90
2023-01-26T18:27:17.210Z,3.00
2023-01-26T18:29:44.225Z,3.40
2023-01-26T18:32:11.294Z,2.50
2023-01-26T18:34:42.060Z,2.63
2023-01-26T18:37:12.872Z,2.20
2023-01-26T18:39:40.009Z,2.47
2023-01-26T18:42:07.136Z,2.70
2023-01-26T18:45:02.715Z,4.03
2023-01-26T18:47:32.376Z,3.70
2023-01-26T18:49:59.305Z,3.00
2023-01-26T18:52:26.150Z,2.87
2023-01-26T18:54:53.118Z,3.13
2023-01-26T18:57:20.120Z,2.60
2023-01-26T18:59:47.131Z,3.13
2023-01-26T19:02:15.164Z,3.40
2023-01-26T19:04:42.566Z,5.10
2023-01-26T19:07:10.639Z,5.57
2023-01-26T19:09:38.691Z,10.33
2023-01-26T19:12:06.698Z,8.43
2023-01-26T19:14:33.641Z,10.07
2023-01-26T19:17:00.661Z,7.43
2023-01-26T19:19:29.411Z,8.73
2023-01-26T19:21:56.426Z,9.47
2023-01-26T19:24:23.835Z,7.57
2023-01-26T19:26:50.783Z,6.73
2023-01-26T19:29:17.682Z,7.37
2023-01-26T19:31:44.786Z,3.23
2023-01-26T19:34:14.504Z,3.03
2023-01-26T19:36:41.970Z,2.20
2023-01-26T19:39:11.139Z,2.60
2023-01-26T19:41:39.143Z,2.13
2023-01-26T19:44:06.920Z,2.50
2023-01-26T19:46:33.908Z,2.63
2023-01-26T19:49:00.982Z,3.70
2023-01-26T19:51:28.036Z,2.20
2023-01-26T19:53:58.566Z,3.73
2023-01-26T19:56:29.853Z,3.00
2023-01-26T19:59:02.028Z,4.13
2023-01-26T20:01:30.735Z,3.63
2023-01-26T20:04:02.619Z,4.20
2023-01-26T20:06:32.054Z,4.63
2023-01-26T20:09:00.031Z,4.40
2023-01-26T20:11:29.572Z,5.30
2023-01-26T20:14:06.026Z,3.90
2023-01-26T20:16:34.536Z,4.33
2023-01-26T20:19:02.264Z,5.90
2023-01-26T20:21:30.657Z,5.30
2023-01-26T20:23:58.348Z,5.03
2023-01-26T20:26:27.412Z,5.10
2023-01-26T20:28:57.658Z,4.70
2023-01-26T20:31:26.285Z,4.10
2023-01-26T20:33:53.669Z,4.50
2023-01-26T20:36:24.807Z,2.87
2023-01-26T20:38:52.139Z,3.33
2023-01-26T20:41:22.157Z,3.23
2023-01-26T20:43:59.124Z,2.67
2023-01-26T20:46:34.219Z,3.33
2023-01-26T20:49:01.861Z,2.80
2023-01-26T20:51:33.638Z,4.70
2023-01-26T20:54:01.057Z,4.57
2023-01-26T20:56:28.380Z,4.20
2023-01-26T20:58:56.210Z,6.70
2023-01-26T21:01:24.471Z,6.63
2023-01-26T21:03:52.108Z,5.40
2023-01-26T21:06:21.032Z,4.33
2023-01-26T21:08:50.033Z,4.07
2023-01-26T21:11:17.414Z,3.57
2023-01-26T21:13:45.401Z,3.60
2023-01-26T21:16:17.209Z,3.00
2023-01-26T21:18:46.064Z,3.20
2023-01-26T21:21:17.653Z,2.40
2023-01-26T21:23:45.727Z,2.13
2023-01-26T21:26:15.322Z,2.80
2023-01-26T21:28:42.436Z,2.63
2023-01-26T21:31:14.022Z,2.33
2023-01-26T21:33:43.694Z,2.63
2023-01-26T21:36:13.700Z,3.57
2023-01-26T21:38:42.973Z,3.33
2023-01-26T21:41:36.425Z,3.47
2023-01-26T21:44:11.979Z,3.67
2023-01-26T21:46:39.607Z,3.60
2023-01-26T21:49:08.148Z,3.17
2023-01-26T21:51:53.858Z,3.43
2023-01-26T21:54:20.792Z,3.77
2023-01-26T21:56:47.800Z,3.80
2023-01-26T21:59:16.422Z,3.37
2023-01-26T22:01:48.455Z,3.67
2023-01-26T22:04:18.549Z,3.40
2023-01-26T22:06:45.491Z,3.10
2023-01-26T22:09:15.015Z,3.60
2023-01-26T22:11:42.283Z,2.87
2023-01-26T22:14:17.781Z,3.50
2023-01-26T22:16:44.816Z,4.03
2023-01-26T22:19:12.606Z,3.43
2023-01-26T22:21:39.902Z,3.47
2023-01-26T22:24:11.320Z,2.50
2023-01-26T22:26:39.376Z,2.60
2023-01-26T22:29:07.748Z,2.73
2023-01-26T22:31:35.098Z,2.30
2023-01-26T22:34:02.102Z,2.70
2023-01-26T22:36:29.652Z,3.73
2023-01-26T22:38:56.969Z,2.30
2023-01-26T22:41:29.063Z,2.73
2023-01-26T22:43:59.263Z,2.70
2023-01-26T22:46:28.063Z,2.37
2023-01-26T22:48:57.363Z,1.90
2023-01-26T22:51:27.084Z,2.00
2023-01-26T22:53:55.306Z,2.33
2023-01-26T22:56:22.702Z,2.57
2023-01-26T22:58:57.975Z,2.50
2023-01-26T23:01:27.995Z,1.87
2023-01-26T23:03:56.109Z,2.33
2023-01-26T23:06:23.961Z,2.10
2023-01-26T23:08:50.977Z,2.53
2023-01-26T23:11:23.692Z,1.97
2023-01-26T23:13:51.928Z,2.00
2023-01-26T23:16:19.010Z,2.00
2023-01-26T23:18:45.953Z,3.00
2023-01-26T23:21:13.037Z,2.60
2023-01-26T23:23:40.723Z,2.90
2023-01-26T23:26:08.990Z,1.83
2023-01-26T23:28:38.752Z,2.60
2023-01-26T23:31:06.342Z,1.77
2023-01-26T23:33:35.228Z,2.13
2023-01-26T23:36:02.828Z,1.47
2023-01-26T23:38:30.418Z,1.27
2023-01-26T23:40:58.345Z,1.50
2023-01-26T23:43:25.357Z,2.07
2023-01-26T23:45:52.723Z,1.50
2023-01-26T23:48:20.204Z,1.60
2023-01-26T23:50:47.671Z,1.50
2023-01-26T23:53:15.052Z,1.80
2023-01-26T23:55:43.414Z,1.80
2023-01-26T23:58:11.450Z,1.63
